createdAt,value
2017-02-04T00:00:26.146Z,1.06
2017-02-04T00:01:26.528Z,1.00
2017-02-04T00:02:27.058Z,0.95
2017-02-04T00:03:27.590Z,0.82
2017-02-04T00:04:28.155Z,0.75
2017-02-04T00:05:28.653Z,0.65
2017-02-04T00:06:29.181Z,0.57
2017-02-04T00:07:29.857Z,0.51
2017-02-04T00:08:30.383Z,0.44
2017-02-04T00:09:30.915Z,0.36
2017-02-04T00:10:31.331Z,0.30
2017-02-04T00:11:31.821Z,0.24
2017-02-04T00:12:32.355Z,0.29
2017-02-04T00:13:32.894Z,0.29
2017-02-04T00:14:33.564Z,0.29
2017-02-04T00:15:33.986Z,0.30
2017-02-04T00:16:34.481Z,0.33
2017-02-04T00:17:35.051Z,0.34
2017-02-04T00:18:35.556Z,0.34
2017-02-04T00:19:36.239Z,0.31
2017-02-04T00:20:36.623Z,0.31
2017-02-04T00:21:37.152Z,0.30
2017-02-04T00:22:37.694Z,0.31
2017-02-04T00:23:38.361Z,0.31
2017-02-04T00:24:38.741Z,0.34
2017-02-04T00:25:39.421Z,0.33
2017-02-04T00:26:39.807Z,0.36
2017-02-04T00:27:40.335Z,0.36
2017-02-04T00:28:40.863Z,0.37
2017-02-04T00:29:41.394Z,0.38
2017-02-04T00:30:42.068Z,0.42
2017-02-04T00:31:42.471Z,0.51
2017-02-04T00:32:42.987Z,0.68
2017-02-04T00:33:43.522Z,0.79
2017-02-04T00:34:44.049Z,0.90
2017-02-04T00:35:44.572Z,1.04
2017-02-04T00:36:45.100Z,1.09
2017-02-04T00:37:45.635Z,1.15
2017-02-04T00:38:46.159Z,1.28
2017-02-04T00:39:46.707Z,1.60
2017-02-04T00:40:47.368Z,1.75
2017-02-04T00:41:47.747Z,1.92
2017-02-04T00:42:48.282Z,1.97
2017-02-04T00:43:48.812Z,2.08
2017-02-04T00:44:49.339Z,2.15
2017-02-04T00:45:50.017Z,2.23
2017-02-04T00:46:50.395Z,2.27
2017-02-04T00:47:50.927Z,2.33
2017-02-04T00:48:51.483Z,2.38
2017-02-04T00:49:51.982Z,2.52
2017-02-04T00:50:52.515Z,2.68
2017-02-04T00:51:53.054Z,2.79
2017-02-04T00:52:53.579Z,2.91
2017-02-04T00:53:54.259Z,2.92
2017-02-04T00:54:54.636Z,2.95
2017-02-04T00:55:55.169Z,2.99
2017-02-04T00:56:55.705Z,2.96
2017-02-04T00:57:56.235Z,2.98
2017-02-04T00:58:56.770Z,3.01
2017-02-04T00:59:57.335Z,3.02
2017-02-04T01:00:57.833Z,3.02
2017-02-04T01:01:58.517Z,2.98
2017-02-04T01:02:58.902Z,2.95
2017-02-04T01:03:59.434Z,2.92
2017-02-04T01:05:00.108Z,2.91
2017-02-04T01:06:00.493Z,2.88
2017-02-04T01:07:01.023Z,2.91
2017-02-04T01:08:01.706Z,2.90
2017-02-04T01:09:02.233Z,2.94
2017-02-04T01:10:02.762Z,2.92
2017-02-04T01:11:03.293Z,2.95
2017-02-04T01:12:03.677Z,2.96
2017-02-04T01:13:04.351Z,2.91
2017-02-04T01:14:04.883Z,2.85
2017-02-04T01:15:05.268Z,2.80
2017-02-04T01:16:05.944Z,2.77
2017-02-04T01:17:06.326Z,2.81
2017-02-04T01:18:06.858Z,2.79
2017-02-04T01:19:07.388Z,2.77
2017-02-04T01:20:08.212Z,2.72
2017-02-04T01:21:08.588Z,2.62
2017-02-04T01:22:08.970Z,2.52
2017-02-04T01:23:09.507Z,2.46
2017-02-04T01:24:10.036Z,2.39
2017-02-04T01:25:10.586Z,2.36
2017-02-04T01:26:11.093Z,2.27
2017-02-04T01:27:11.645Z,2.26
2017-02-04T01:28:12.303Z,2.21
2017-02-04T01:29:12.682Z,2.20
2017-02-04T01:30:13.362Z,2.20
2017-02-04T01:31:13.748Z,2.26
2017-02-04T01:32:14.427Z,2.32
2017-02-04T01:33:14.809Z,2.38
2017-02-04T01:34:15.486Z,2.44
2017-02-04T01:35:15.866Z,2.52
2017-02-04T01:36:16.393Z,2.57
2017-02-04T01:37:16.925Z,2.65
2017-02-04T01:38:17.602Z,2.74
2017-02-04T01:39:17.985Z,2.80
2017-02-04T01:40:18.668Z,2.83
2017-02-04T01:41:19.200Z,2.87
2017-02-04T01:42:19.735Z,2.90
2017-02-04T01:43:20.121Z,2.95
2017-02-04T01:44:20.662Z,2.96
2017-02-04T01:45:21.184Z,2.95
2017-02-04T01:46:21.716Z,2.94
2017-02-04T01:47:22.250Z,2.92
2017-02-04T01:48:22.779Z,2.95
2017-02-04T01:49:23.308Z,2.95
2017-02-04T01:50:23.849Z,2.94
2017-02-04T01:51:24.370Z,2.98
2017-02-04T01:52:25.049Z,3.03
2017-02-04T01:53:25.429Z,3.07
2017-02-04T01:54:25.964Z,3.13
2017-02-04T01:55:26.489Z,3.14
2017-02-04T01:56:27.019Z,3.13
2017-02-04T01:57:27.550Z,3.12
2017-02-04T01:58:28.083Z,3.07
2017-02-04T01:59:28.610Z,3.02
2017-02-04T02:00:29.290Z,2.98
2017-02-04T02:01:29.678Z,2.95
2017-02-04T02:02:30.207Z,2.92
2017-02-04T02:03:30.739Z,2.90
2017-02-04T02:04:31.280Z,2.85
2017-02-04T02:05:31.808Z,2.81
2017-02-04T02:06:32.334Z,2.80
2017-02-04T02:07:32.865Z,2.77
2017-02-04T02:08:33.396Z,2.76
2017-02-04T02:09:33.925Z,2.80
2017-02-04T02:10:34.455Z,2.84
2017-02-04T02:11:34.984Z,2.90
2017-02-04T02:12:35.520Z,2.95
2017-02-04T02:13:36.046Z,3.01
2017-02-04T02:14:36.576Z,3.06
2017-02-04T02:15:37.108Z,3.16
2017-02-04T02:16:37.637Z,3.25
2017-02-04T02:17:38.167Z,3.31
2017-02-04T02:18:38.695Z,3.35
2017-02-04T02:19:39.227Z,3.39
2017-02-04T02:20:39.907Z,3.46
2017-02-04T02:21:40.292Z,3.51
2017-02-04T02:22:40.833Z,3.57
2017-02-04T02:23:41.365Z,3.59
2017-02-04T02:24:41.895Z,3.61
2017-02-04T02:25:42.571Z,3.65
2017-02-04T02:26:42.964Z,3.72
2017-02-04T02:27:43.494Z,3.73
2017-02-04T02:28:44.018Z,3.74
2017-02-04T02:29:44.550Z,3.73
2017-02-04T02:30:45.229Z,3.76
2017-02-04T02:31:45.755Z,3.76
2017-02-04T02:32:46.289Z,3.78
2017-02-04T02:33:46.688Z,3.80
2017-02-04T02:34:47.199Z,3.80
2017-02-04T02:35:47.734Z,3.80
2017-02-04T02:36:48.267Z,3.80
2017-02-04T02:37:48.795Z,3.80
2017-02-04T02:38:49.358Z,3.80
2017-02-04T02:39:50.006Z,3.80
2017-02-04T02:40:50.388Z,3.80
2017-02-04T02:41:50.915Z,3.78
2017-02-04T02:42:51.460Z,3.80
2017-02-04T02:43:51.979Z,3.77
2017-02-04T02:44:52.507Z,3.73
2017-02-04T02:45:53.038Z,3.64
2017-02-04T02:46:53.576Z,3.58
2017-02-04T02:47:54.103Z,3.53
2017-02-04T02:48:54.643Z,3.47
2017-02-04T02:49:55.167Z,3.46
2017-02-04T02:50:55.706Z,3.47
2017-02-04T02:51:56.231Z,3.48
2017-02-04T02:52:56.776Z,3.48
2017-02-04T02:53:57.293Z,3.51
2017-02-04T02:54:57.965Z,3.54
2017-02-04T02:55:58.349Z,3.55
2017-02-04T02:56:58.887Z,3.59
2017-02-04T02:57:59.412Z,3.61
2017-02-04T02:58:59.944Z,3.61
2017-02-04T03:00:00.472Z,3.58
2017-02-04T03:01:01.004Z,3.54
2017-02-04T03:02:01.537Z,3.53
2017-02-04T03:03:02.078Z,3.51
2017-02-04T03:04:02.749Z,3.50
2017-02-04T03:05:03.291Z,3.50
2017-02-04T03:06:03.669Z,3.50
2017-02-04T03:07:04.203Z,3.48
2017-02-04T03:08:04.739Z,3.50
2017-02-04T03:09:05.265Z,3.51
2017-02-04T03:10:05.791Z,3.51
2017-02-04T03:11:06.469Z,3.48
2017-02-04T03:12:06.853Z,3.46
2017-02-04T03:13:07.527Z,3.44
2017-02-04T03:14:07.910Z,3.42
2017-02-04T03:15:08.443Z,3.40
2017-02-04T03:16:08.974Z,3.39
2017-02-04T03:17:09.503Z,3.39
2017-02-04T03:18:10.039Z,3.36
2017-02-04T03:19:10.715Z,3.35
2017-02-04T03:20:11.240Z,3.31
2017-02-04T03:21:11.776Z,3.28
2017-02-04T03:22:12.160Z,3.26
2017-02-04T03:23:12.687Z,3.25
2017-02-04T03:24:13.216Z,3.26
2017-02-04T03:25:13.749Z,3.29
2017-02-04T03:26:14.277Z,3.28
2017-02-04T03:27:14.810Z,3.28
2017-02-04T03:28:15.338Z,3.26
2017-02-04T03:29:15.880Z,3.25
2017-02-04T03:30:16.408Z,3.25
2017-02-04T03:31:16.943Z,3.25
2017-02-04T03:32:17.474Z,3.26
2017-02-04T03:33:18.148Z,3.29
2017-02-04T03:34:18.526Z,3.31
2017-02-04T03:35:19.067Z,3.39
2017-02-04T03:36:19.591Z,3.50
2017-02-04T03:37:20.125Z,3.54
2017-02-04T03:38:20.651Z,3.55
2017-02-04T03:39:21.332Z,3.57
2017-02-04T03:40:21.727Z,3.57
2017-02-04T03:41:22.394Z,3.59
2017-02-04T03:42:22.780Z,3.64
2017-02-04T03:43:23.315Z,3.64
2017-02-04T03:44:23.841Z,3.62
2017-02-04T03:45:24.372Z,3.62
2017-02-04T03:46:24.907Z,3.61
2017-02-04T03:47:25.448Z,3.57
2017-02-04T03:48:25.969Z,3.55
2017-02-04T03:49:26.648Z,3.54
2017-02-04T03:50:27.031Z,3.54
2017-02-04T03:51:27.707Z,3.53
2017-02-04T03:52:28.090Z,3.51
2017-02-04T03:53:28.766Z,3.51
2017-02-04T03:54:29.157Z,3.50
2017-02-04T03:55:29.829Z,3.48
2017-02-04T03:56:30.211Z,3.48
2017-02-04T03:57:30.755Z,3.48
2017-02-04T03:58:31.433Z,3.48
2017-02-04T03:59:31.811Z,3.48
2017-02-04T04:00:32.338Z,3.50
2017-02-04T04:01:33.012Z,3.50
2017-02-04T04:02:33.392Z,3.51
2017-02-04T04:03:33.935Z,3.53
2017-02-04T04:04:34.465Z,3.54
2017-02-04T04:05:34.996Z,3.54
2017-02-04T04:06:35.517Z,3.58
2017-02-04T04:07:36.196Z,3.59
2017-02-04T04:08:36.575Z,3.64
2017-02-04T04:09:37.109Z,3.69
2017-02-04T04:10:37.637Z,3.74
2017-02-04T04:11:38.184Z,3.77
2017-02-04T04:12:38.696Z,3.81
2017-02-04T04:13:39.232Z,3.84
2017-02-04T04:14:39.758Z,3.89
2017-02-04T04:15:40.292Z,3.93
2017-02-04T04:16:40.816Z,3.97
2017-02-04T04:17:41.495Z,4.00
2017-02-04T04:18:42.026Z,4.04
2017-02-04T04:19:42.562Z,4.08
2017-02-04T04:20:42.943Z,4.11
2017-02-04T04:21:43.479Z,4.12
2017-02-04T04:22:44.001Z,4.19
2017-02-04T04:23:44.543Z,4.26
2017-02-04T04:24:45.072Z,4.28
2017-02-04T04:25:45.601Z,4.36
2017-02-04T04:26:46.134Z,4.39
2017-02-04T04:27:46.817Z,4.39
2017-02-04T04:28:47.206Z,4.41
2017-02-04T04:29:47.884Z,4.41
2017-02-04T04:30:48.277Z,4.43
2017-02-04T04:31:48.813Z,4.44
2017-02-04T04:32:49.325Z,4.44
2017-02-04T04:33:49.855Z,4.48
2017-02-04T04:34:50.391Z,4.51
2017-02-04T04:35:51.066Z,4.50
2017-02-04T04:36:51.447Z,4.50
2017-02-04T04:37:52.266Z,4.52
2017-02-04T04:38:52.498Z,4.57
2017-02-04T04:39:53.178Z,4.57
2017-02-04T04:40:53.560Z,4.57
2017-02-04T04:41:54.239Z,4.55
2017-02-04T04:42:54.620Z,4.59
2017-02-04T04:43:55.154Z,4.60
2017-02-04T04:44:55.681Z,4.66
2017-02-04T04:45:56.216Z,4.70
2017-02-04T04:46:56.741Z,4.73
2017-02-04T04:47:57.415Z,4.77
2017-02-04T04:48:57.806Z,4.77
2017-02-04T04:49:58.333Z,4.80
2017-02-04T04:50:58.865Z,4.80
2017-02-04T04:51:59.393Z,4.81
2017-02-04T04:52:59.924Z,4.80
2017-02-04T04:54:00.458Z,4.81
2017-02-04T04:55:00.983Z,4.87
2017-02-04T04:56:01.525Z,4.89
2017-02-04T04:57:02.044Z,4.93
2017-02-04T04:58:02.574Z,4.96
2017-02-04T04:59:03.105Z,4.98
2017-02-04T05:00:03.643Z,4.98
2017-02-04T05:01:04.170Z,4.98
2017-02-04T05:02:04.846Z,4.96
2017-02-04T05:03:05.232Z,4.93
2017-02-04T05:04:05.764Z,4.92
2017-02-04T05:05:06.297Z,4.93
2017-02-04T05:06:06.826Z,4.92
2017-02-04T05:07:07.499Z,4.96
2017-02-04T05:08:07.890Z,4.96
2017-02-04T05:09:08.430Z,4.98
2017-02-04T05:10:08.972Z,4.98
2017-02-04T05:11:09.501Z,5.00
2017-02-04T05:12:10.182Z,5.03
2017-02-04T05:13:10.566Z,5.00
2017-02-04T05:14:11.242Z,4.99
2017-02-04T05:15:11.627Z,4.98
2017-02-04T05:16:12.161Z,4.96
2017-02-04T05:17:12.981Z,4.96
2017-02-04T05:18:13.360Z,4.98
2017-02-04T05:19:13.743Z,4.98
2017-02-04T05:20:14.281Z,4.98
2017-02-04T05:21:14.802Z,4.98
2017-02-04T05:22:15.332Z,4.96
2017-02-04T05:23:15.863Z,4.98
2017-02-04T05:24:16.403Z,4.95
2017-02-04T05:25:16.919Z,4.96
2017-02-04T05:26:17.457Z,4.96
2017-02-04T05:27:17.979Z,4.96
2017-02-04T05:28:18.520Z,4.95
2017-02-04T05:29:19.044Z,4.95
2017-02-04T05:30:19.581Z,4.96
2017-02-04T05:31:20.105Z,4.98
2017-02-04T05:32:20.780Z,5.00
2017-02-04T05:33:21.163Z,5.04
2017-02-04T05:34:21.845Z,5.06
2017-02-04T05:35:22.225Z,5.07
2017-02-04T05:36:22.764Z,5.14
2017-02-04T05:37:23.289Z,5.16
2017-02-04T05:38:23.818Z,5.19
2017-02-04T05:39:24.345Z,5.18
2017-02-04T05:40:24.879Z,5.18
2017-02-04T05:41:25.405Z,5.16
2017-02-04T05:42:25.943Z,5.19
2017-02-04T05:43:26.461Z,5.21
2017-02-04T05:44:27.000Z,5.25
2017-02-04T05:45:27.526Z,5.26
2017-02-04T05:46:28.203Z,5.26
2017-02-04T05:47:28.589Z,5.27
2017-02-04T05:48:29.129Z,5.27
2017-02-04T05:49:29.653Z,5.23
2017-02-04T05:50:30.191Z,5.21
2017-02-04T05:51:30.728Z,5.19
2017-02-04T05:52:31.409Z,5.16
2017-02-04T05:53:31.937Z,5.15
2017-02-04T05:54:32.336Z,5.15
2017-02-04T05:55:32.854Z,5.15
2017-02-04T05:56:33.388Z,5.10
2017-02-04T05:57:34.060Z,5.06
2017-02-04T05:58:34.598Z,5.04
2017-02-04T05:59:34.994Z,5.06
2017-02-04T06:00:35.653Z,5.06
2017-02-04T06:01:36.039Z,5.07
2017-02-04T06:02:36.570Z,5.07
2017-02-04T06:03:37.095Z,5.09
2017-02-04T06:04:37.772Z,5.10
2017-02-04T06:05:38.158Z,5.11
2017-02-04T06:06:38.692Z,5.15
2017-02-04T06:07:39.216Z,5.15
2017-02-04T06:08:39.756Z,5.15
2017-02-04T06:09:40.423Z,5.18
2017-02-04T06:10:40.815Z,5.21
2017-02-04T06:11:41.345Z,5.22
2017-02-04T06:12:42.022Z,5.23
2017-02-04T06:13:42.408Z,5.26
2017-02-04T06:14:42.942Z,5.27
2017-02-04T06:15:43.466Z,5.30
2017-02-04T06:16:44.151Z,5.35
2017-02-04T06:17:44.548Z,5.35
2017-02-04T06:18:45.123Z,5.34
2017-02-04T06:19:45.611Z,5.33
2017-02-04T06:20:46.152Z,5.30
2017-02-04T06:21:46.682Z,5.33
2017-02-04T06:22:47.363Z,5.33
2017-02-04T06:23:47.781Z,5.30
2017-02-04T06:24:48.305Z,5.29
2017-02-04T06:25:48.820Z,5.27
2017-02-04T06:26:49.367Z,5.29
2017-02-04T06:27:50.027Z,5.35
2017-02-04T06:28:50.557Z,5.38
2017-02-04T06:29:50.948Z,5.42
2017-02-04T06:30:51.630Z,5.42
2017-02-04T06:31:52.016Z,5.45
2017-02-04T06:32:52.567Z,5.48
2017-02-04T06:33:53.090Z,5.52
2017-02-04T06:34:53.636Z,5.56
2017-02-04T06:35:54.151Z,5.59
2017-02-04T06:36:54.846Z,5.59
2017-02-04T06:37:55.354Z,5.59
2017-02-04T06:38:55.744Z,5.56
2017-02-04T06:39:56.275Z,5.53
2017-02-04T06:40:56.817Z,5.49
2017-02-04T06:41:57.331Z,5.48
2017-02-04T06:42:57.874Z,5.45
2017-02-04T06:43:58.393Z,5.46
2017-02-04T06:44:58.935Z,5.46
2017-02-04T06:45:59.455Z,5.48
2017-02-04T06:46:59.989Z,5.46
2017-02-04T06:48:00.516Z,5.46
2017-02-04T06:49:01.057Z,5.46
2017-02-04T06:50:01.721Z,5.45
2017-02-04T06:51:02.119Z,5.45
2017-02-04T06:52:02.637Z,5.42
2017-02-04T06:53:03.305Z,5.40
2017-02-04T06:54:03.696Z,5.37
2017-02-04T06:55:04.372Z,5.37
2017-02-04T06:56:04.760Z,5.35
2017-02-04T06:57:05.285Z,5.34
2017-02-04T06:58:05.826Z,5.27
2017-02-04T06:59:06.348Z,5.22
2017-02-04T07:00:06.877Z,5.21
2017-02-04T07:01:07.559Z,5.14
2017-02-04T07:02:07.941Z,5.14
2017-02-04T07:03:08.624Z,5.11
2017-02-04T07:04:09.012Z,5.09
2017-02-04T07:05:09.684Z,5.06
2017-02-04T07:06:10.068Z,5.00
2017-02-04T07:07:10.597Z,4.98
2017-02-04T07:08:11.129Z,4.93
2017-02-04T07:09:11.663Z,4.91
2017-02-04T07:10:12.199Z,4.85
2017-02-04T07:11:12.733Z,4.81
2017-02-04T07:12:13.258Z,4.78
2017-02-04T07:13:13.802Z,4.77
2017-02-04T07:14:14.329Z,4.75
2017-02-04T07:15:14.871Z,4.70
2017-02-04T07:16:15.393Z,4.67
2017-02-04T07:17:16.065Z,4.62
2017-02-04T07:18:16.460Z,4.57
2017-02-04T07:19:16.976Z,4.50
2017-02-04T07:20:17.654Z,4.47
2017-02-04T07:21:18.184Z,4.43
2017-02-04T07:22:18.715Z,4.39
2017-02-04T07:23:19.248Z,4.30
2017-02-04T07:24:19.628Z,4.22
2017-02-04T07:25:20.306Z,4.12
2017-02-04T07:26:20.836Z,4.07
2017-02-04T07:27:21.370Z,3.99
2017-02-04T07:28:21.751Z,3.92
2017-02-04T07:29:22.296Z,3.90
2017-02-04T07:30:22.825Z,3.92
2017-02-04T07:31:23.489Z,3.95
2017-02-04T07:32:24.015Z,3.96
2017-02-04T07:33:24.414Z,3.99
2017-02-04T07:34:24.930Z,4.00
2017-02-04T07:35:25.468Z,4.03
2017-02-04T07:36:25.993Z,4.06
2017-02-04T07:37:26.528Z,4.08
2017-02-04T07:38:27.054Z,4.11
2017-02-04T07:39:27.580Z,4.14
2017-02-04T07:40:28.102Z,4.15
2017-02-04T07:41:28.646Z,4.15
2017-02-04T07:42:29.169Z,4.18
2017-02-04T07:43:29.699Z,4.18
2017-02-04T07:44:30.224Z,4.21
2017-02-04T07:45:30.758Z,4.26
2017-02-04T07:46:31.279Z,4.30
2017-02-04T07:47:31.960Z,4.37
2017-02-04T07:48:32.342Z,4.39
2017-02-04T07:49:33.018Z,4.43
2017-02-04T07:50:33.397Z,4.50
2017-02-04T07:51:33.934Z,4.51
2017-02-04T07:52:34.468Z,4.55
2017-02-04T07:53:35.139Z,4.60
2017-02-04T07:54:35.529Z,4.66
2017-02-04T07:55:36.073Z,4.69
2017-02-04T07:56:36.891Z,4.77
2017-02-04T07:57:37.273Z,4.84
2017-02-04T07:58:37.658Z,4.93
2017-02-04T07:59:38.333Z,5.00
2017-02-04T08:00:38.858Z,5.03
2017-02-04T08:01:39.248Z,5.09
2017-02-04T08:02:39.775Z,5.18
2017-02-04T08:03:40.459Z,5.19
2017-02-04T08:04:40.835Z,5.26
2017-02-04T08:05:41.380Z,5.29
2017-02-04T08:06:41.901Z,5.35
2017-02-04T08:07:42.434Z,5.44
2017-02-04T08:08:42.961Z,5.45
2017-02-04T08:09:43.500Z,5.57
2017-02-04T08:10:44.020Z,5.55
2017-02-04T08:11:44.562Z,5.62
2017-02-04T08:12:45.082Z,5.68
2017-02-04T08:13:45.622Z,5.70
2017-02-04T08:14:46.140Z,5.73
2017-02-04T08:15:46.680Z,5.81
2017-02-04T08:16:47.201Z,5.89
2017-02-04T08:17:47.744Z,5.97
2017-02-04T08:18:48.406Z,6.02
2017-02-04T08:19:48.801Z,6.03
2017-02-04T08:20:49.316Z,6.04
2017-02-04T08:21:49.850Z,6.18
2017-02-04T08:22:50.377Z,6.29
2017-02-04T08:23:50.916Z,6.27
2017-02-04T08:24:51.445Z,6.09
2017-02-04T08:25:51.972Z,6.14
2017-02-04T08:26:52.493Z,6.25
2017-02-04T08:27:53.035Z,6.38
2017-02-04T08:28:53.555Z,6.44
2017-02-04T08:29:54.091Z,6.52
2017-02-04T08:30:54.617Z,6.48
2017-02-04T08:31:55.294Z,6.51
2017-02-04T08:32:55.820Z,6.51
2017-02-04T08:33:56.207Z,6.60
2017-02-04T08:34:56.734Z,6.67
2017-02-04T08:35:57.417Z,6.74
2017-02-04T08:36:57.942Z,6.78
2017-02-04T08:37:58.338Z,6.81
2017-02-04T08:38:58.864Z,6.89
2017-02-04T08:39:59.399Z,7.08
2017-02-04T08:40:59.921Z,7.26
2017-02-04T08:42:00.453Z,7.11
2017-02-04T08:43:00.979Z,7.09
2017-02-04T08:44:01.655Z,7.02
2017-02-04T08:45:02.037Z,7.01
2017-02-04T08:46:02.594Z,7.00
2017-02-04T08:47:03.244Z,7.09
2017-02-04T08:48:03.639Z,7.09
2017-02-04T08:49:04.161Z,7.15
2017-02-04T08:50:04.840Z,7.16
2017-02-04T08:51:05.366Z,7.18
2017-02-04T08:52:05.761Z,7.22
2017-02-04T08:53:06.299Z,7.16
2017-02-04T08:54:06.820Z,7.27
2017-02-04T08:55:07.366Z,7.22
2017-02-04T08:56:08.018Z,7.22
2017-02-04T08:57:08.404Z,7.23
2017-02-04T08:58:09.076Z,7.26
2017-02-04T08:59:09.604Z,7.27
2017-02-04T09:00:10.031Z,7.35
2017-02-04T09:01:10.524Z,7.52
2017-02-04T09:02:11.060Z,7.58
2017-02-04T09:03:11.582Z,7.64
2017-02-04T09:04:12.124Z,7.82
2017-02-04T09:05:12.645Z,7.89
2017-02-04T09:06:13.181Z,7.83
2017-02-04T09:07:13.845Z,7.98
2017-02-04T09:08:14.375Z,8.09
2017-02-04T09:09:14.753Z,7.99
2017-02-04T09:10:15.292Z,8.15
2017-02-04T09:11:15.817Z,8.35
2017-02-04T09:12:16.345Z,8.58
2017-02-04T09:13:16.881Z,8.68
2017-02-04T09:14:17.418Z,8.80
2017-02-04T09:15:18.087Z,8.87
2017-02-04T09:16:18.622Z,9.00
2017-02-04T09:17:19.008Z,9.02
2017-02-04T09:18:19.691Z,9.04
2017-02-04T09:19:20.073Z,9.13
2017-02-04T09:20:20.752Z,9.07
2017-02-04T09:21:21.136Z,9.11
2017-02-04T09:22:21.672Z,9.15
2017-02-04T09:23:22.201Z,9.36
2017-02-04T09:24:22.727Z,9.47
2017-02-04T09:25:23.256Z,9.39
2017-02-04T09:26:23.932Z,9.44
2017-02-04T09:27:24.314Z,9.68
2017-02-04T09:28:24.993Z,9.80
2017-02-04T09:29:25.520Z,9.55
2017-02-04T09:30:26.054Z,9.71
2017-02-04T09:31:26.433Z,9.72
2017-02-04T09:32:26.976Z,9.79
2017-02-04T09:33:27.495Z,9.86
2017-02-04T09:34:28.027Z,9.80
2017-02-04T09:35:28.554Z,9.82
2017-02-04T09:36:29.232Z,9.64
2017-02-04T09:37:29.618Z,9.78
2017-02-04T09:38:30.151Z,9.98
2017-02-04T09:39:30.674Z,10.00
2017-02-04T09:40:31.351Z,10.04
2017-02-04T09:41:31.737Z,9.97
2017-02-04T09:42:32.411Z,10.05
2017-02-04T09:43:32.794Z,9.94
2017-02-04T09:44:33.327Z,9.90
2017-02-04T09:45:33.857Z,9.87
2017-02-04T09:46:34.534Z,10.01
2017-02-04T09:47:34.921Z,10.21
2017-02-04T09:48:35.451Z,10.24
2017-02-04T09:49:35.979Z,10.08
2017-02-04T09:50:36.512Z,9.82
2017-02-04T09:51:37.039Z,9.90
2017-02-04T09:52:37.579Z,9.69
2017-02-04T09:53:38.397Z,9.64
2017-02-04T09:54:38.644Z,9.66
2017-02-04T09:55:39.158Z,9.68
2017-02-04T09:56:39.693Z,9.82
2017-02-04T09:57:40.223Z,9.82
2017-02-04T09:58:40.904Z,9.97
2017-02-04T09:59:41.437Z,9.95
2017-02-04T10:00:41.837Z,9.80
2017-02-04T10:01:42.366Z,9.76
2017-02-04T10:02:43.040Z,9.79
2017-02-04T10:03:43.421Z,9.95
2017-02-04T10:04:43.967Z,9.84
2017-02-04T10:05:44.483Z,9.84
2017-02-04T10:06:45.020Z,9.78
2017-02-04T10:07:45.542Z,9.86
2017-02-04T10:08:46.220Z,9.98
2017-02-04T10:09:46.602Z,9.97
2017-02-04T10:10:47.144Z,10.16
2017-02-04T10:11:47.667Z,10.18
2017-02-04T10:12:48.202Z,10.08
2017-02-04T10:13:48.724Z,9.95
2017-02-04T10:14:49.248Z,9.93
2017-02-04T10:15:49.777Z,9.97
2017-02-04T10:16:50.326Z,9.90
2017-02-04T10:17:50.844Z,9.94
2017-02-04T10:18:51.371Z,9.84
2017-02-04T10:19:51.906Z,9.79
2017-02-04T10:20:52.428Z,9.53
2017-02-04T10:21:53.106Z,9.46
2017-02-04T10:22:53.642Z,9.44
2017-02-04T10:23:54.024Z,9.43
2017-02-04T10:24:54.561Z,9.44
2017-02-04T10:25:55.082Z,9.46
2017-02-04T10:26:55.756Z,9.54
2017-02-04T10:27:56.142Z,9.57
2017-02-04T10:28:56.675Z,9.68
2017-02-04T10:29:57.200Z,9.75
2017-02-04T10:30:57.743Z,9.76
2017-02-04T10:31:58.428Z,9.82
2017-02-04T10:32:58.795Z,9.71
2017-02-04T10:33:59.333Z,9.66
2017-02-04T10:34:59.869Z,9.57
2017-02-04T10:36:00.383Z,9.44
2017-02-04T10:37:01.060Z,9.43
2017-02-04T10:38:01.445Z,9.62
2017-02-04T10:39:01.979Z,9.80
2017-02-04T10:40:02.520Z,9.83
2017-02-04T10:41:03.190Z,9.86
2017-02-04T10:42:03.576Z,9.78
2017-02-04T10:43:04.114Z,9.60
2017-02-04T10:44:04.633Z,9.46
2017-02-04T10:45:05.312Z,9.34
2017-02-04T10:46:05.704Z,9.38
2017-02-04T10:47:06.229Z,9.57
2017-02-04T10:48:06.757Z,9.58
2017-02-04T10:49:07.434Z,9.68
2017-02-04T10:50:07.817Z,9.65
2017-02-04T10:51:08.353Z,9.79
2017-02-04T10:52:08.876Z,9.94
2017-02-04T10:53:09.426Z,10.00
2017-02-04T10:54:09.936Z,10.05
2017-02-04T10:55:10.468Z,9.95
2017-02-04T10:56:10.997Z,10.04
2017-02-04T10:57:11.540Z,10.13
2017-02-04T10:58:12.059Z,10.27
2017-02-04T10:59:12.590Z,10.30
2017-02-04T11:00:13.134Z,10.09
2017-02-04T11:01:13.652Z,10.23
2017-02-04T11:02:14.178Z,10.35
2017-02-04T11:03:14.712Z,10.50
2017-02-04T11:04:15.235Z,10.49
2017-02-04T11:05:15.774Z,10.56
2017-02-04T11:06:16.292Z,10.68
2017-02-04T11:07:16.970Z,10.54
2017-02-04T11:08:17.348Z,10.47
2017-02-04T11:09:17.880Z,10.43
2017-02-04T11:10:18.447Z,10.45
2017-02-04T11:11:19.112Z,10.34
2017-02-04T11:12:19.473Z,10.25
2017-02-04T11:13:19.997Z,10.17
2017-02-04T11:14:20.530Z,10.25
2017-02-04T11:15:21.205Z,10.18
2017-02-04T11:16:21.590Z,9.95
2017-02-04T11:17:22.133Z,9.53
2017-02-04T11:18:22.652Z,9.40
2017-02-04T11:19:23.333Z,9.32
2017-02-04T11:20:23.727Z,9.34
2017-02-04T11:21:24.258Z,9.42
2017-02-04T11:22:24.933Z,9.55
2017-02-04T11:23:25.334Z,9.68
2017-02-04T11:24:26.000Z,9.71
2017-02-04T11:25:26.385Z,9.55
2017-02-04T11:26:26.916Z,9.47
2017-02-04T11:27:27.443Z,9.51
2017-02-04T11:28:27.981Z,9.55
2017-02-04T11:29:28.536Z,9.55
2017-02-04T11:30:29.033Z,9.54
2017-02-04T11:31:29.562Z,9.57
2017-02-04T11:32:30.089Z,9.57
2017-02-04T11:33:30.620Z,9.57
2017-02-04T11:34:31.146Z,9.51
2017-02-04T11:35:31.683Z,9.42
2017-02-04T11:36:32.205Z,9.39
2017-02-04T11:37:32.738Z,9.46
2017-02-04T11:38:33.265Z,9.50
2017-02-04T11:39:33.937Z,9.34
2017-02-04T11:40:34.470Z,9.27
2017-02-04T11:41:34.866Z,9.31
2017-02-04T11:42:35.385Z,9.38
2017-02-04T11:43:35.928Z,9.42
2017-02-04T11:44:36.448Z,9.46
2017-02-04T11:45:36.977Z,9.47
2017-02-04T11:46:37.652Z,9.32
2017-02-04T11:47:38.039Z,9.30
2017-02-04T11:48:38.710Z,9.34
2017-02-04T11:49:39.287Z,9.42
2017-02-04T11:50:39.620Z,9.39
2017-02-04T11:51:40.297Z,9.43
2017-02-04T11:52:40.689Z,9.43
2017-02-04T11:53:41.220Z,9.42
2017-02-04T11:54:41.745Z,9.44
2017-02-04T11:55:42.281Z,9.38
2017-02-04T11:56:42.803Z,9.36
2017-02-04T11:57:43.336Z,9.32
2017-02-04T11:58:43.865Z,9.31
2017-02-04T11:59:44.407Z,9.34
2017-02-04T12:00:44.923Z,9.25
2017-02-04T12:01:45.456Z,9.28
2017-02-04T12:02:45.989Z,9.23
2017-02-04T12:03:46.538Z,9.25
2017-02-04T12:04:47.065Z,9.23
2017-02-04T12:05:47.605Z,9.23
2017-02-04T12:06:48.126Z,9.27
2017-02-04T12:07:48.665Z,9.22
2017-02-04T12:08:49.193Z,9.23
2017-02-04T12:09:49.873Z,9.20
2017-02-04T12:10:50.254Z,9.27
2017-02-04T12:11:50.785Z,9.25
2017-02-04T12:12:51.312Z,9.25
2017-02-04T12:13:51.844Z,9.31
2017-02-04T12:14:52.365Z,9.25
2017-02-04T12:15:53.043Z,9.22
2017-02-04T12:16:53.429Z,9.15
2017-02-04T12:17:54.101Z,9.15
2017-02-04T12:18:54.477Z,9.16
2017-02-04T12:19:55.017Z,9.15
2017-02-04T12:20:55.539Z,9.18
2017-02-04T12:21:56.083Z,9.20
2017-02-04T12:22:56.604Z,9.20
2017-02-04T12:23:57.136Z,9.19
2017-02-04T12:24:57.659Z,9.25
2017-02-04T12:25:58.336Z,9.30
2017-02-04T12:26:58.722Z,9.40
2017-02-04T12:27:59.255Z,9.46
2017-02-04T12:28:59.924Z,9.42
2017-02-04T12:30:00.315Z,9.44
2017-02-04T12:31:00.843Z,9.57
2017-02-04T12:32:01.382Z,9.61
2017-02-04T12:33:01.901Z,9.61
2017-02-04T12:34:02.574Z,9.62
2017-02-04T12:35:02.962Z,9.69
2017-02-04T12:36:03.493Z,9.71
2017-02-04T12:37:04.035Z,9.79
2017-02-04T12:38:04.694Z,9.78
2017-02-04T12:39:05.075Z,9.75
2017-02-04T12:40:05.608Z,9.78
2017-02-04T12:41:06.138Z,9.75
2017-02-04T12:42:06.669Z,9.73
2017-02-04T12:43:07.194Z,9.73
2017-02-04T12:44:07.875Z,9.78
2017-02-04T12:45:08.411Z,9.84
2017-02-04T12:46:08.804Z,9.89
2017-02-04T12:47:09.329Z,9.91
2017-02-04T12:48:09.874Z,9.93
2017-02-04T12:49:10.391Z,9.98
2017-02-04T12:50:10.922Z,10.06
2017-02-04T12:51:11.454Z,10.18
2017-02-04T12:52:12.135Z,10.31
2017-02-04T12:53:12.544Z,10.54
2017-02-04T12:54:13.061Z,10.54
2017-02-04T12:55:13.578Z,10.52
2017-02-04T12:56:14.254Z,10.52
2017-02-04T12:57:14.783Z,10.54
2017-02-04T12:58:15.182Z,10.71
2017-02-04T12:59:15.705Z,10.88
2017-02-04T13:00:16.377Z,11.11
2017-02-04T13:01:16.762Z,11.07
2017-02-04T13:02:17.303Z,11.05
2017-02-04T13:03:17.821Z,10.90
2017-02-04T13:04:18.360Z,10.71
2017-02-04T13:05:18.882Z,10.77
2017-02-04T13:06:19.414Z,10.81
2017-02-04T13:07:20.245Z,10.91
2017-02-04T13:08:20.620Z,11.02
2017-02-04T13:09:21.032Z,10.90
2017-02-04T13:10:21.683Z,10.86
2017-02-04T13:11:22.066Z,10.90
2017-02-04T13:12:22.605Z,10.98
2017-02-04T13:13:23.127Z,10.84
2017-02-04T13:14:23.804Z,10.75
2017-02-04T13:15:24.197Z,10.75
2017-02-04T13:16:24.726Z,10.81
2017-02-04T13:17:25.390Z,10.84
2017-02-04T13:18:25.924Z,10.69
2017-02-04T13:19:26.309Z,10.47
2017-02-04T13:20:26.849Z,10.35
2017-02-04T13:21:27.374Z,10.31
2017-02-04T13:22:28.050Z,10.30
2017-02-04T13:23:28.436Z,10.25